createdAt,value
2022-08-11T00:02:01.593Z,99.90
2022-08-11T00:04:37.234Z,99.90
2022-08-11T00:07:06.913Z,99.90
2022-08-11T00:09:39.046Z,99.90
2022-08-11T00:12:16.134Z,99.90
2022-08-11T00:14:45.266Z,99.90
2022-08-11T00:17:15.720Z,99.90
2022-08-11T00:20:14.038Z,99.90
2022-08-11T00:22:34.975Z,99.90
2022-08-11T00:25:10.732Z,99.90
2022-08-11T00:27:40.374Z,99.90
2022-08-11T00:30:09.226Z,99.90
2022-08-11T00:32:39.089Z,99.90
2022-08-11T00:35:51.046Z,99.90
2022-08-11T00:37:57.066Z,99.90
2022-08-11T00:40:33.576Z,99.90
2022-08-11T00:43:20.005Z,99.90
2022-08-11T00:46:16.966Z,99.90
2022-08-11T00:49:16.134Z,99.90
2022-08-11T00:52:10.804Z,99.90
2022-08-11T00:54:50.638Z,99.90
2022-08-11T00:57:52.117Z,99.90
2022-08-11T01:00:25.327Z,99.90
2022-08-11T01:03:33.930Z,99.90
2022-08-11T01:06:25.937Z,99.90
2022-08-11T01:09:09.221Z,99.90
2022-08-11T01:12:09.986Z,99.90
2022-08-11T01:15:14.792Z,99.90
2022-08-11T01:18:01.101Z,99.90
2022-08-11T01:20:50.249Z,99.90
2022-08-11T01:23:41.426Z,99.90
2022-08-11T01:26:30.665Z,99.90
2022-08-11T01:29:35.766Z,99.90
2022-08-11T01:32:50.961Z,99.90
2022-08-11T01:35:57.221Z,99.90
2022-08-11T01:38:48.243Z,99.90
2022-08-11T01:41:56.757Z,99.90
2022-08-11T01:45:03.955Z,99.90
2022-08-11T01:47:53.169Z,99.90
2022-08-11T01:50:42.854Z,99.90
2022-08-11T01:53:28.461Z,99.90
2022-08-11T01:56:28.508Z,99.90
2022-08-11T01:59:06.805Z,99.90
2022-08-11T02:01:36.676Z,99.90
2022-08-11T02:04:42.276Z,99.90
2022-08-11T02:07:16.042Z,99.90
2022-08-11T02:09:51.876Z,99.90
2022-08-11T02:12:51.236Z,99.90
2022-08-11T02:15:37.518Z,99.90
2022-08-11T02:18:45.327Z,99.90
2022-08-11T02:21:37.746Z,99.90
2022-08-11T02:24:14.023Z,99.90
2022-08-11T02:26:59.693Z,99.90
2022-08-11T02:30:07.164Z,99.90
2022-08-11T02:33:10.585Z,99.90
2022-08-11T02:36:04.280Z,99.90
2022-08-11T02:38:52.048Z,99.90
2022-08-11T02:42:32.023Z,99.90
2022-08-11T02:45:12.478Z,99.90
2022-08-11T02:48:15.023Z,99.90
2022-08-11T02:51:01.614Z,99.90
2022-08-11T02:53:36.195Z,99.90
2022-08-11T02:56:03.828Z,99.90
2022-08-11T02:59:18.801Z,99.90
2022-08-11T03:02:28.381Z,99.90
2022-08-11T03:04:59.857Z,99.90
2022-08-11T03:07:35.864Z,99.90
2022-08-11T03:10:21.321Z,99.90
2022-08-11T03:13:26.362Z,99.90
2022-08-11T03:16:37.905Z,99.90
2022-08-11T03:19:37.577Z,99.90
2022-08-11T03:22:27.455Z,99.90
2022-08-11T03:25:02.200Z,99.90
2022-08-11T03:28:04.325Z,99.90
2022-08-11T03:30:44.270Z,99.90
2022-08-11T03:33:52.914Z,99.90
2022-08-11T03:37:17.259Z,99.90
2022-08-11T03:40:16.740Z,99.90
2022-08-11T03:43:00.009Z,99.90
2022-08-11T03:45:49.978Z,99.90
2022-08-11T03:48:39.992Z,99.90
2022-08-11T03:51:51.557Z,99.90
2022-08-11T03:54:37.025Z,99.90
2022-08-11T03:57:16.606Z,99.90
2022-08-11T04:00:04.405Z,99.90
2022-08-11T04:02:43.836Z,99.90
2022-08-11T04:05:49.175Z,99.90
2022-08-11T04:08:40.339Z,99.90
2022-08-11T04:11:29.743Z,99.90
2022-08-11T04:15:00.166Z,99.90
2022-08-11T04:17:55.368Z,99.90
2022-08-11T04:20:50.286Z,99.90
2022-08-11T04:24:33.401Z,99.90
2022-08-11T04:26:18.837Z,99.90
2022-08-11T04:29:09.663Z,99.90
2022-08-11T04:31:57.516Z,99.90
2022-08-11T04:34:35.828Z,99.90
2022-08-11T04:37:35.284Z,99.90
2022-08-11T04:40:33.809Z,99.90
2022-08-11T04:44:02.401Z,99.90
2022-08-11T04:46:56.388Z,99.90
2022-08-11T04:49:51.637Z,99.90
2022-08-11T04:52:49.958Z,99.90
2022-08-11T04:56:14.256Z,99.90
2022-08-11T04:59:03.061Z,99.90
2022-08-11T05:02:04.690Z,99.90
2022-08-11T05:05:25.776Z,99.90
2022-08-11T05:08:27.878Z,99.90
2022-08-11T05:11:04.516Z,99.90
2022-08-11T05:14:06.016Z,99.90
2022-08-11T05:17:14.036Z,99.90
2022-08-11T05:20:05.603Z,99.90
2022-08-11T05:22:53.802Z,99.90
2022-08-11T05:26:43.689Z,99.90
2022-08-11T05:29:21.220Z,99.90
2022-08-11T05:32:17.924Z,99.90
2022-08-11T05:34:54.893Z,99.90
2022-08-11T05:37:33.528Z,99.90
2022-08-11T05:40:32.230Z,99.90
2022-08-11T05:43:21.160Z,99.90
2022-08-11T05:46:25.690Z,99.90
2022-08-11T05:49:12.534Z,99.90
2022-08-11T05:52:04.863Z,99.90
2022-08-11T05:54:54.484Z,99.90
2022-08-11T05:57:48.833Z,99.90
2022-08-11T06:00:16.880Z,99.90
2022-08-11T06:02:55.642Z,99.90
2022-08-11T06:05:33.113Z,99.90
2022-08-11T06:08:10.495Z,99.90
2022-08-11T06:10:40.507Z,99.90
2022-08-11T06:13:08.796Z,99.90
2022-08-11T06:15:45.797Z,99.90
2022-08-11T06:18:13.804Z,99.90
2022-08-11T06:20:56.995Z,99.90
2022-08-11T06:23:32.187Z,99.90
2022-08-11T06:26:00.953Z,99.90
2022-08-11T06:28:37.429Z,99.90
2022-08-11T06:31:19.385Z,99.90
2022-08-11T06:34:41.720Z,99.90
2022-08-11T06:37:42.329Z,99.90
2022-08-11T06:40:27.589Z,99.90
2022-08-11T06:43:23.168Z,99.90
2022-08-11T06:46:03.408Z,99.90
2022-08-11T06:48:34.022Z,99.90
2022-08-11T06:51:14.738Z,99.90
2022-08-11T06:54:03.755Z,99.90
2022-08-11T06:57:29.984Z,99.90
2022-08-11T07:00:07.261Z,99.90
2022-08-11T07:02:42.515Z,99.90
2022-08-11T07:05:24.048Z,99.90
2022-08-11T07:08:36.004Z,99.90
2022-08-11T07:11:40.478Z,99.90
2022-08-11T07:14:27.313Z,99.90
2022-08-11T07:16:56.486Z,99.90
2022-08-11T07:19:48.009Z,99.90
2022-08-11T07:22:34.861Z,99.90
2022-08-11T07:25:27.887Z,99.90
2022-08-11T07:28:19.924Z,99.90
2022-08-11T07:30:48.755Z,99.90
2022-08-11T07:34:07.221Z,99.90
2022-08-11T07:36:18.594Z,99.90
2022-08-11T07:38:51.792Z,99.90
2022-08-11T07:41:22.704Z,99.90
2022-08-11T07:43:54.554Z,99.90
2022-08-11T07:46:41.615Z,99.90
2022-08-11T07:49:28.976Z,99.90
2022-08-11T07:52:15.125Z,99.90
2022-08-11T07:54:43.914Z,99.90
2022-08-11T07:58:02.222Z,99.90
2022-08-11T08:00:41.784Z,99.90
2022-08-11T08:03:28.327Z,99.90
2022-08-11T08:06:23.289Z,99.90
2022-08-11T08:09:20.936Z,99.90
2022-08-11T08:12:07.903Z,99.90
2022-08-11T08:14:55.189Z,99.90
2022-08-11T08:17:41.795Z,99.90
2022-08-11T08:20:13.404Z,99.90
2022-08-11T08:22:46.400Z,99.90
2022-08-11T08:25:17.088Z,99.90
2022-08-11T08:27:46.029Z,99.90
2022-08-11T08:30:32.940Z,99.90
2022-08-11T08:33:01.937Z,99.90
2022-08-11T08:35:32.827Z,99.90
2022-08-11T08:38:02.737Z,99.90
2022-08-11T08:40:29.912Z,99.90
2022-08-11T08:43:03.302Z,99.90
2022-08-11T08:45:34.822Z,99.90
2022-08-11T08:48:09.570Z,99.90
2022-08-11T08:50:59.594Z,99.90
2022-08-11T08:53:32.402Z,99.90
2022-08-11T08:56:02.449Z,99.90
2022-08-11T08:58:32.020Z,99.90
2022-08-11T09:01:01.374Z,99.90
2022-08-11T09:04:04.831Z,99.90
2022-08-11T09:06:17.285Z,99.90
2022-08-11T09:08:46.483Z,99.90
2022-08-11T09:11:37.294Z,99.90
2022-08-11T09:14:09.295Z,99.90
2022-08-11T09:16:39.841Z,99.90
2022-08-11T09:19:08.203Z,99.90
2022-08-11T09:21:46.368Z,99.90
2022-08-11T09:24:56.682Z,99.90
2022-08-11T09:27:25.679Z,99.90
2022-08-11T09:29:54.765Z,99.90
2022-08-11T09:32:23.408Z,99.90
2022-08-11T09:34:53.991Z,99.90
2022-08-11T09:37:54.343Z,99.90
2022-08-11T09:40:32.404Z,99.90
2022-08-11T09:43:22.666Z,99.80
2022-08-11T09:45:55.157Z,97.10
2022-08-11T09:48:25.067Z,99.30
2022-08-11T09:50:55.493Z,96.70
2022-08-11T09:53:37.319Z,97.70
2022-08-11T09:56:40.827Z,96.40
2022-08-11T09:59:09.387Z,94.80
2022-08-11T10:01:47.227Z,93.80
2022-08-11T10:04:18.747Z,92.00
2022-08-11T10:07:04.158Z,92.50
2022-08-11T10:09:41.748Z,91.60
2022-08-11T10:12:12.759Z,92.50
2022-08-11T10:15:04.553Z,90.20
2022-08-11T10:17:36.472Z,91.40
2022-08-11T10:20:06.137Z,91.70
2022-08-11T10:22:53.586Z,89.70
2022-08-11T10:25:40.114Z,87.80
2022-08-11T10:28:33.187Z,86.90
2022-08-11T10:31:16.718Z,88.10
2022-08-11T10:34:01.734Z,84.50
2022-08-11T10:36:34.730Z,88.30
2022-08-11T10:39:04.953Z,83.00
2022-08-11T10:42:08.597Z,80.80
2022-08-11T10:44:42.094Z,78.30
2022-08-11T10:47:31.334Z,79.40
2022-08-11T10:50:18.150Z,85.10
2022-08-11T10:53:07.437Z,80.10
2022-08-11T10:55:58.690Z,77.70
2022-08-11T10:58:45.569Z,77.70
2022-08-11T11:01:15.172Z,77.50
2022-08-11T11:03:43.666Z,74.40
2022-08-11T11:06:32.537Z,75.40
2022-08-11T11:09:09.746Z,74.40
2022-08-11T11:12:07.836Z,75.60
2022-08-11T11:14:59.063Z,73.40
2022-08-11T11:17:56.535Z,73.20
2022-08-11T11:20:45.038Z,75.60
2022-08-11T11:23:20.900Z,72.60
2022-08-11T11:26:07.050Z,77.40
2022-08-11T11:29:02.238Z,75.10
2022-08-11T11:32:21.919Z,74.70
2022-08-11T11:35:09.376Z,75.80
2022-08-11T11:37:38.942Z,72.00
2022-08-11T11:40:14.628Z,73.20
2022-08-11T11:42:46.015Z,73.80
2022-08-11T11:45:24.091Z,70.60
2022-08-11T11:47:54.868Z,70.50
2022-08-11T11:50:36.694Z,74.30
2022-08-11T11:53:10.577Z,73.70
2022-08-11T11:55:38.351Z,72.10
2022-08-11T11:58:25.517Z,73.50
2022-08-11T12:01:13.258Z,70.90
2022-08-11T12:03:41.449Z,70.10
2022-08-11T12:06:12.654Z,71.50
2022-08-11T12:08:40.090Z,71.30
2022-08-11T12:11:29.637Z,71.50
2022-08-11T12:14:01.014Z,73.70
2022-08-11T12:16:32.907Z,72.50
2022-08-11T12:19:06.654Z,70.00
2022-08-11T12:21:36.582Z,72.00
2022-08-11T12:24:29.188Z,67.90
2022-08-11T12:27:17.677Z,70.70
2022-08-11T12:29:57.228Z,70.70
2022-08-11T12:32:29.060Z,67.00
2022-08-11T12:34:58.059Z,68.10
2022-08-11T12:37:35.237Z,68.00
2022-08-11T12:40:43.256Z,69.80
2022-08-11T12:43:39.211Z,69.60
2022-08-11T12:46:13.216Z,68.50
2022-08-11T12:49:07.166Z,70.70
2022-08-11T12:52:06.784Z,69.20
2022-08-11T12:54:54.344Z,63.10
2022-08-11T12:57:46.849Z,66.60
2022-08-11T13:00:34.439Z,65.60
2022-08-11T13:03:21.680Z,68.40
2022-08-11T13:05:51.925Z,62.50
2022-08-11T13:08:22.495Z,65.60
2022-08-11T13:11:10.226Z,61.70
2022-08-11T13:13:52.319Z,58.90
2022-08-11T13:16:30.776Z,61.40
2022-08-11T13:19:00.839Z,63.40
2022-08-11T13:21:29.331Z,60.10
2022-08-11T13:24:01.818Z,58.10
2022-08-11T13:26:47.790Z,58.40
2022-08-11T13:29:22.754Z,60.10
2022-08-11T13:31:51.436Z,60.80
2022-08-11T13:34:20.522Z,58.70
2022-08-11T13:36:52.249Z,59.50
2022-08-11T13:39:25.188Z,58.40
2022-08-11T13:41:56.910Z,56.00
2022-08-11T13:44:30.004Z,58.30
2022-08-11T13:47:01.341Z,57.70
2022-08-11T13:49:34.831Z,59.70
2022-08-11T13:52:02.764Z,59.90
2022-08-11T13:54:31.984Z,60.00
2022-08-11T13:57:03.212Z,61.40
2022-08-11T13:59:51.854Z,60.70
2022-08-11T14:02:29.218Z,60.60
2022-08-11T14:05:09.960Z,57.70
2022-08-11T14:07:47.128Z,57.50
2022-08-11T14:10:16.185Z,56.70
2022-08-11T14:13:05.638Z,56.50
2022-08-11T14:15:35.244Z,58.10
2022-08-11T14:18:11.499Z,55.60
2022-08-11T14:21:00.616Z,58.90
2022-08-11T14:23:40.364Z,54.90
2022-08-11T14:26:28.116Z,57.90
2022-08-11T14:29:02.882Z,57.70
2022-08-11T14:31:31.973Z,57.10
2022-08-11T14:34:02.577Z,58.10
2022-08-11T14:36:38.350Z,54.50
2022-08-11T14:39:17.084Z,54.30
2022-08-11T14:42:17.700Z,57.20
2022-08-11T14:45:07.038Z,56.70
2022-08-11T14:47:37.110Z,56.40
2022-08-11T14:50:11.487Z,56.20
2022-08-11T14:52:55.168Z,53.80
2022-08-11T14:55:43.147Z,55.40
2022-08-11T14:58:11.480Z,56.60
2022-08-11T15:00:39.323Z,53.30
2022-08-11T15:03:11.181Z,59.00
2022-08-11T15:05:56.145Z,55.50
2022-08-11T15:08:46.620Z,56.80
2022-08-11T15:11:34.231Z,55.90
2022-08-11T15:14:03.508Z,52.20
2022-08-11T15:16:49.850Z,54.90
2022-08-11T15:19:19.820Z,55.60
2022-08-11T15:22:06.133Z,56.10
2022-08-11T15:24:36.224Z,53.30
2022-08-11T15:27:27.005Z,53.70
2022-08-11T15:30:20.911Z,54.40
2022-08-11T15:33:22.893Z,55.40
2022-08-11T15:36:09.318Z,55.90
2022-08-11T15:38:42.747Z,56.50
2022-08-11T15:41:31.564Z,55.90
2022-08-11T15:44:18.040Z,53.60
2022-08-11T15:46:45.752Z,53.80
2022-08-11T15:49:23.681Z,53.30
2022-08-11T15:52:02.452Z,55.00
2022-08-11T15:54:32.532Z,52.70
2022-08-11T15:57:02.300Z,54.50
2022-08-11T15:59:52.569Z,54.90
2022-08-11T16:02:41.050Z,52.70
2022-08-11T16:05:13.342Z,55.00
2022-08-11T16:07:42.840Z,56.20
2022-08-11T16:10:21.596Z,55.90
2022-08-11T16:13:06.237Z,56.60
2022-08-11T16:15:57.922Z,53.20
2022-08-11T16:18:40.656Z,54.00
2022-08-11T16:21:10.801Z,55.20
2022-08-11T16:23:59.648Z,54.00
2022-08-11T16:27:11.491Z,53.10
2022-08-11T16:29:18.436Z,54.60
2022-08-11T16:32:06.953Z,54.40
2022-08-11T16:34:54.308Z,54.00
2022-08-11T16:37:41.227Z,56.50
2022-08-11T16:40:09.533Z,55.10
2022-08-11T16:43:05.183Z,55.60
2022-08-11T16:45:59.167Z,54.30
2022-08-11T16:48:35.974Z,55.30
2022-08-11T16:51:07.217Z,53.50
2022-08-11T16:54:04.031Z,54.60
2022-08-11T16:56:27.176Z,52.60
2022-08-11T16:59:16.288Z,53.60
2022-08-11T17:01:48.136Z,53.90
2022-08-11T17:04:43.500Z,53.40
2022-08-11T17:07:42.433Z,53.40
2022-08-11T17:11:00.044Z,55.60
2022-08-11T17:13:52.327Z,54.00
2022-08-11T17:16:24.954Z,54.80
2022-08-11T17:19:06.774Z,54.50
2022-08-11T17:22:00.428Z,54.80
2022-08-11T17:24:29.026Z,54.40
2022-08-11T17:26:57.622Z,54.30
2022-08-11T17:29:54.548Z,56.10
2022-08-11T17:32:56.186Z,54.70
2022-08-11T17:35:33.120Z,55.00
2022-08-11T17:38:04.013Z,54.80
2022-08-11T17:40:33.602Z,56.10
2022-08-11T17:43:20.023Z,55.00
2022-08-11T17:46:06.659Z,54.90
2022-08-11T17:48:48.009Z,55.10
2022-08-11T17:51:39.534Z,53.40
2022-08-11T17:54:27.115Z,54.50
2022-08-11T17:57:20.088Z,54.30
2022-08-11T17:59:53.120Z,55.40
2022-08-11T18:02:44.310Z,55.90
2022-08-11T18:05:17.457Z,54.10
2022-08-11T18:08:04.810Z,55.70
2022-08-11T18:10:52.225Z,55.50
2022-08-11T18:13:40.344Z,56.40
2022-08-11T18:16:27.571Z,54.90
2022-08-11T18:19:13.757Z,56.00
2022-08-11T18:22:14.432Z,57.30
2022-08-11T18:25:13.161Z,56.20
2022-08-11T18:28:03.356Z,57.20
2022-08-11T18:31:03.255Z,58.90
2022-08-11T18:34:08.986Z,58.30
2022-08-11T18:37:00.732Z,58.50
2022-08-11T18:39:54.592Z,62.90
2022-08-11T18:42:43.360Z,61.60
2022-08-11T18:45:32.400Z,63.50
2022-08-11T18:48:34.195Z,64.70
2022-08-11T18:51:30.800Z,66.40
2022-08-11T18:54:27.497Z,69.10
2022-08-11T18:57:15.326Z,69.30
2022-08-11T19:00:03.206Z,67.10
2022-08-11T19:02:50.526Z,66.40
2022-08-11T19:06:06.051Z,68.50
2022-08-11T19:08:50.043Z,69.00
2022-08-11T19:11:42.760Z,70.90
2022-08-11T19:14:31.593Z,71.60
2022-08-11T19:17:44.172Z,73.30
2022-08-11T19:20:41.907Z,75.20
2022-08-11T19:23:31.482Z,78.20
2022-08-11T19:26:18.635Z,80.30
2022-08-11T19:29:07.865Z,80.10
2022-08-11T19:31:55.328Z,80.20
2022-08-11T19:34:43.186Z,84.80
2022-08-11T19:37:29.820Z,87.90
2022-08-11T19:40:28.306Z,89.80
2022-08-11T19:43:23.875Z,90.50
2022-08-11T19:46:14.800Z,93.00
2022-08-11T19:49:03.434Z,96.10
2022-08-11T19:51:53.426Z,96.40
2022-08-11T19:54:47.407Z,98.80
2022-08-11T19:57:39.547Z,99.90
2022-08-11T20:00:30.571Z,99.90
2022-08-11T20:03:17.991Z,99.90
2022-08-11T20:06:05.399Z,99.90
2022-08-11T20:08:57.835Z,99.90
2022-08-11T20:11:48.101Z,99.90
2022-08-11T20:14:36.015Z,99.90
2022-08-11T20:17:24.222Z,99.90
2022-08-11T20:20:11.010Z,99.90
2022-08-11T20:22:58.362Z,99.90
2022-08-11T20:25:45.544Z,99.90
2022-08-11T20:28:33.105Z,99.90
2022-08-11T20:31:18.912Z,99.90
2022-08-11T20:34:05.568Z,99.90
2022-08-11T20:36:54.907Z,99.90
2022-08-11T20:39:41.906Z,99.90
2022-08-11T20:42:30.676Z,99.90
2022-08-11T20:45:23.271Z,99.90
2022-08-11T20:48:14.746Z,99.90
2022-08-11T20:51:07.182Z,99.90
2022-08-11T20:54:00.090Z,99.90
2022-08-11T20:56:54.778Z,99.90
2022-08-11T20:59:49.376Z,99.90
2022-08-11T21:02:44.606Z,99.90
2022-08-11T21:06:10.643Z,99.90
2022-08-11T21:08:41.692Z,99.90
2022-08-11T21:11:28.906Z,99.90
2022-08-11T21:14:15.298Z,99.90
2022-08-11T21:17:27.041Z,99.90
2022-08-11T21:20:18.441Z,99.90
2022-08-11T21:23:13.120Z,99.90
2022-08-11T21:26:26.235Z,99.90
2022-08-11T21:29:16.723Z,99.90
2022-08-11T21:32:03.617Z,99.90
2022-08-11T21:34:50.941Z,99.90
2022-08-11T21:37:38.061Z,99.90
2022-08-11T21:40:26.877Z,99.90
2022-08-11T21:43:13.220Z,99.90
2022-08-11T21:46:01.998Z,99.90
2022-08-11T21:48:47.992Z,99.90
2022-08-11T21:51:33.413Z,99.90
2022-08-11T21:54:20.247Z,99.90
2022-08-11T21:57:06.622Z,99.90
2022-08-11T22:00:09.142Z,99.90
2022-08-11T22:02:58.611Z,99.90
2022-08-11T22:05:49.199Z,99.90
2022-08-11T22:08:34.483Z,99.90
2022-08-11T22:11:32.329Z,99.90
2022-08-11T22:14:20.288Z,99.90
2022-08-11T22:17:05.995Z,99.90
2022-08-11T22:19:53.204Z,99.90
2022-08-11T22:22:52.113Z,99.90
2022-08-11T22:25:50.878Z,99.90
2022-08-11T22:28:37.448Z,99.90
2022-08-11T22:31:24.508Z,99.90
2022-08-11T22:34:09.900Z,99.90
2022-08-11T22:36:56.416Z,99.90
2022-08-11T22:39:43.425Z,99.90
2022-08-11T22:42:33.472Z,99.90
2022-08-11T22:45:19.934Z,99.90
2022-08-11T22:48:06.769Z,99.90
2022-08-11T22:50:57.596Z,99.90
2022-08-11T22:53:58.176Z,99.90
2022-08-11T22:56:47.161Z,99.90
2022-08-11T22:59:34.525Z,99.90
2022-08-11T23:02:21.439Z,99.90
2022-08-11T23:05:08.661Z,99.90
2022-08-11T23:07:57.981Z,99.90
2022-08-11T23:10:44.266Z,99.90
2022-08-11T23:13:30.243Z,99.90
2022-08-11T23:16:16.788Z,99.90
2022-08-11T23:19:03.657Z,99.90
2022-08-11T23:21:50.772Z,99.90
2022-08-11T23:24:36.716Z,99.90
2022-08-11T23:27:24.614Z,99.90
2022-08-11T23:30:13.535Z,99.90
2022-08-11T23:33:03.603Z,99.90
2022-08-11T23:35:56.606Z,99.90
2022-08-11T23:38:44.961Z,99.90
2022-08-11T23:41:32.735Z,99.90
2022-08-11T23:44:23.513Z,99.90
2022-08-11T23:47:12.835Z,99.90
2022-08-11T23:49:58.730Z,99.90
2022-08-11T23:52:45.957Z,99.90
2022-08-11T23:55:31.660Z,99.90
2022-08-11T23:58:17.086Z,99.90
